Terminal Aerodrome Forecast
Issued by NWS Wilmington, OH

Home | Current Version | Previous Version | Text Only | Print | Product List | Glossary On
Versions: 1 2 3 4 5 6 7 8 9 10 11 12 13 14 15 16 17 18 19 20 21 22 23 24 25 26 27 28 29
000
FTUS41 KILN 280500 RRA
TAFCVG
TAF
KCVG 280540Z 2806/2912 26006KT 2SM -RA BR OVC004
     FM280800 33008KT 4SM -RA BR OVC008
     FM281000 34008KT P6SM OVC008
     FM281400 34008KT P6SM OVC012
     FM281800 35006KT P6SM BKN022
      TEMPO 2819/2823 SCT025
     FM290900 02005KT P6SM FEW025=

USA.gov is the U.S. government's official web portal to all federal, state and local government web resources and services.